PWSweather.com
Personal Weather Stations
Station Observations
BZA01
Southern Palatinate, Bad BergzabernDE 76887

Southern PalatinateBad BergzabernDE 76887

Lat: 49.096, Lon: 8

Elevation: 640

Station Type: Davis VP2+

Latest ConditionsUpdated 4:42:06 PM GMT+01:01 Saturday, Sep 22, 2018
Currently Today's Max Today's Min Today's Average
Temperature 62.4°F16.9°C 65.8°F18.8°C 47.5°F8.6°C 55.8°F13.2°C
Dew Point 46.0°F7.8°C 49.8°F9.9°C 43.7°F6.5°C 46.9°F8.3°C
Winds 2.9 mph WSW4.7 kmh WSW 6.0 mph -9.7 kmh - - 2.3 mph 3.7 kmh
Wind Gusts 2.0 mph3.2 kmh 10.1 mph16.3 kmh - -
Humidity 55% 92% 45% 75%
Pressure 30.13 in1020.3 mb 30.23 in1023.7 mb 30.12 in1020.0 mb -
Hour Temp Dew Point Humidity Winds Wind Gusts Pressure Precip Precip Rate Daily Precip Total
04:42 PM 62.4°F16.9°C 46.0°F7.8°C 55% 2.9 mph WSW4.7 kmh WSW 2.0 mph3.2 kmh 30.13 in1020.3 mb - 0.00 in0.0 mm 0.00 in0.0 mm
04:32 PM 62.8°F17.1°C 45.9°F7.7°C 54% 2.0 mph WSW3.2 kmh WSW 2.0 mph3.2 kmh 30.13 in1020.3 mb - 0.00 in0.0 mm 0.00 in0.0 mm
04:22 PM 63.0°F17.2°C 45.5°F7.5°C 53% 2.9 mph W4.7 kmh W 2.0 mph3.2 kmh 30.13 in1020.3 mb - 0.00 in0.0 mm 0.00 in0.0 mm
04:12 PM 63.3°F17.4°C 45.0°F7.2°C 51% 2.9 mph SW4.7 kmh SW 2.0 mph3.2 kmh 30.14 in1020.7 mb - 0.00 in0.0 mm 0.00 in0.0 mm
04:02 PM 64.0°F17.8°C 46.0°F7.8°C 52% 2.9 mph W4.7 kmh W 2.9 mph4.7 kmh 30.14 in1020.7 mb - 0.00 in0.0 mm 0.00 in0.0 mm
03:52 PM 63.9°F17.7°C 44.8°F7.1°C 50% 2.9 mph WSW4.7 kmh WSW 2.0 mph3.2 kmh 30.14 in1020.7 mb - 0.00 in0.0 mm 0.00 in0.0 mm
03:42 PM 64.0°F17.8°C 44.4°F6.9°C 49% 4.9 mph SW7.9 kmh SW 4.9 mph7.9 kmh 30.14 in1020.7 mb - 0.00 in0.0 mm 0.00 in0.0 mm
03:32 PM 64.2°F17.9°C 45.1°F7.3°C 50% 4.0 mph WNW6.4 kmh WNW 2.9 mph4.7 kmh 30.14 in1020.7 mb - 0.00 in0.0 mm 0.00 in0.0 mm
03:22 PM 64.2°F17.9°C 45.7°F7.6°C 51% 4.0 mph WNW6.4 kmh WNW 4.0 mph6.4 kmh 30.15 in1021.0 mb - 0.00 in0.0 mm 0.00 in0.0 mm
03:12 PM 64.6°F18.1°C 45.0°F7.2°C 49% 4.9 mph SW7.9 kmh SW 6.0 mph9.7 kmh 30.15 in1021.0 mb - 0.00 in0.0 mm 0.00 in0.0 mm
03:02 PM 64.9°F18.3°C 44.2°F6.8°C 47% 4.0 mph WSW6.4 kmh WSW 4.9 mph7.9 kmh 30.15 in1021.0 mb - 0.00 in0.0 mm 0.00 in0.0 mm
02:52 PM 64.6°F18.1°C 45.0°F7.2°C 49% 4.0 mph W6.4 kmh W 4.0 mph6.4 kmh 30.16 in1021.3 mb - 0.00 in0.0 mm 0.00 in0.0 mm
02:42 PM 64.6°F18.1°C 45.0°F7.2°C 49% 4.0 mph WSW6.4 kmh WSW 10.1 mph16.3 kmh 30.16 in1021.3 mb - 0.00 in0.0 mm 0.00 in0.0 mm
02:32 PM 65.1°F18.4°C 43.9°F6.6°C 46% 4.9 mph WNW7.9 kmh WNW 4.0 mph6.4 kmh 30.16 in1021.3 mb - 0.00 in0.0 mm 0.00 in0.0 mm
02:22 PM 65.8°F18.8°C 45.0°F7.2°C 47% 4.9 mph SW7.9 kmh SW 4.9 mph7.9 kmh 30.16 in1021.3 mb - 0.00 in0.0 mm 0.00 in0.0 mm
02:12 PM 65.7°F18.7°C 43.7°F6.5°C 45% 4.9 mph SW7.9 kmh SW 2.9 mph4.7 kmh 30.16 in1021.3 mb - 0.00 in0.0 mm 0.00 in0.0 mm
02:02 PM 65.5°F18.6°C 44.8°F7.1°C 47% 4.9 mph WNW7.9 kmh WNW 2.9 mph4.7 kmh 30.16 in1021.3 mb - 0.00 in0.0 mm 0.00 in0.0 mm
01:52 PM 65.3°F18.5°C 44.6°F7.0°C 47% 4.9 mph SSW7.9 kmh SSW 8.1 mph13.0 kmh 30.16 in1021.3 mb - 0.00 in0.0 mm 0.00 in0.0 mm
01:42 PM 65.3°F18.5°C 44.6°F7.0°C 47% 4.9 mph W7.9 kmh W 4.0 mph6.4 kmh 30.16 in1021.3 mb - 0.00 in0.0 mm 0.00 in0.0 mm
01:32 PM 65.1°F18.4°C 45.5°F7.5°C 49% 6.0 mph SW9.7 kmh SW 6.0 mph9.7 kmh 30.16 in1021.3 mb - 0.00 in0.0 mm 0.00 in0.0 mm
01:22 PM 64.6°F18.1°C 45.5°F7.5°C 50% 4.9 mph SW7.9 kmh SW 6.9 mph11.1 kmh 30.17 in1021.7 mb - 0.00 in0.0 mm 0.00 in0.0 mm
01:12 PM 64.6°F18.1°C 46.0°F7.8°C 51% 4.9 mph WSW7.9 kmh WSW 6.9 mph11.1 kmh 30.18 in1022.0 mb - 0.00 in0.0 mm 0.00 in0.0 mm
01:02 PM 64.4°F18.0°C 45.9°F7.7°C 51% 4.9 mph SW7.9 kmh SW 6.9 mph11.1 kmh 30.18 in1022.0 mb - 0.00 in0.0 mm 0.00 in0.0 mm
12:52 PM 64.2°F17.9°C 47.3°F8.5°C 54% 4.0 mph SW6.4 kmh SW 4.9 mph7.9 kmh 30.19 in1022.4 mb - 0.00 in0.0 mm 0.00 in0.0 mm
12:42 PM 64.6°F18.1°C 46.0°F7.8°C 51% 4.9 mph WSW7.9 kmh WSW 6.9 mph11.1 kmh 30.19 in1022.4 mb - 0.00 in0.0 mm 0.00 in0.0 mm
12:32 PM 64.6°F18.1°C 47.5°F8.6°C 54% 4.0 mph WNW6.4 kmh WNW 6.0 mph9.7 kmh 30.19 in1022.4 mb - 0.00 in0.0 mm 0.00 in0.0 mm
12:22 PM 64.0°F17.8°C 47.5°F8.6°C 55% 4.0 mph SW6.4 kmh SW 6.0 mph9.7 kmh 30.19 in1022.4 mb - 0.00 in0.0 mm 0.00 in0.0 mm
12:12 PM 63.7°F17.6°C 47.3°F8.5°C 55% 4.9 mph SSW7.9 kmh SSW 4.9 mph7.9 kmh 30.19 in1022.4 mb - 0.00 in0.0 mm 0.00 in0.0 mm
12:02 PM 63.1°F17.3°C 47.1°F8.4°C 56% 4.9 mph SW7.9 kmh SW 2.9 mph4.7 kmh 30.19 in1022.4 mb - 0.00 in0.0 mm 0.00 in0.0 mm
11:52 AM 62.2°F16.8°C 47.7°F8.7°C 59% 4.0 mph SSW6.4 kmh SSW 6.0 mph9.7 kmh 30.20 in1022.7 mb - 0.00 in0.0 mm 0.00 in0.0 mm
11:42 AM 61.9°F16.6°C 47.8°F8.8°C 60% 4.9 mph WNW7.9 kmh WNW 4.9 mph7.9 kmh 30.20 in1022.7 mb - 0.00 in0.0 mm 0.00 in0.0 mm
11:32 AM 61.3°F16.3°C 48.2°F9.0°C 62% 4.9 mph SSW7.9 kmh SSW 2.0 mph3.2 kmh 30.20 in1022.7 mb - 0.00 in0.0 mm 0.00 in0.0 mm
11:22 AM 61.0°F16.1°C 47.8°F8.8°C 62% 4.9 mph WNW7.9 kmh WNW 2.0 mph3.2 kmh 30.20 in1022.7 mb - 0.00 in0.0 mm 0.00 in0.0 mm
11:12 AM 60.4°F15.8°C 48.6°F9.2°C 65% 4.9 mph W7.9 kmh W 4.0 mph6.4 kmh 30.21 in1023.0 mb - 0.00 in0.0 mm 0.00 in0.0 mm
11:02 AM 59.7°F15.4°C 49.1°F9.5°C 68% 2.9 mph S4.7 kmh S 8.9 mph14.3 kmh 30.21 in1023.0 mb - 0.00 in0.0 mm 0.00 in0.0 mm
10:52 AM 59.7°F15.4°C 49.5°F9.7°C 69% 4.0 mph NW6.4 kmh NW 4.0 mph6.4 kmh 30.21 in1023.0 mb - 0.00 in0.0 mm 0.00 in0.0 mm
10:42 AM 59.4°F15.2°C 49.1°F9.5°C 69% 4.0 mph SSW6.4 kmh SSW 6.0 mph9.7 kmh 30.22 in1023.4 mb - 0.00 in0.0 mm 0.00 in0.0 mm
10:32 AM 59.2°F15.1°C 49.8°F9.9°C 71% 2.9 mph WSW4.7 kmh WSW 2.9 mph4.7 kmh 30.22 in1023.4 mb - 0.00 in0.0 mm 0.00 in0.0 mm
10:22 AM 58.8°F14.9°C 49.8°F9.9°C 72% 4.0 mph SW6.4 kmh SW 4.0 mph6.4 kmh 30.22 in1023.4 mb - 0.00 in0.0 mm 0.00 in0.0 mm
10:12 AM 58.5°F14.7°C 49.1°F9.5°C 71% 4.0 mph SSW6.4 kmh SSW 6.9 mph11.1 kmh 30.23 in1023.7 mb - 0.00 in0.0 mm 0.00 in0.0 mm
10:02 AM 57.9°F14.4°C 49.3°F9.6°C 73% 4.0 mph SSW6.4 kmh SSW 2.0 mph3.2 kmh 30.23 in1023.7 mb - 0.00 in0.0 mm 0.00 in0.0 mm
09:52 AM 57.4°F14.1°C 48.7°F9.3°C 73% 4.0 mph WSW6.4 kmh WSW 4.0 mph6.4 kmh 30.22 in1023.4 mb - 0.00 in0.0 mm 0.00 in0.0 mm
09:42 AM 56.8°F13.8°C 48.6°F9.2°C 74% 4.0 mph SW6.4 kmh SW 2.0 mph3.2 kmh 30.22 in1023.4 mb - 0.00 in0.0 mm 0.00 in0.0 mm
09:32 AM 56.7°F13.7°C 48.4°F9.1°C 74% 4.0 mph SSW6.4 kmh SSW 10.1 mph16.3 kmh 30.23 in1023.7 mb - 0.00 in0.0 mm 0.00 in0.0 mm
09:22 AM 56.3°F13.5°C 48.9°F9.4°C 76% 2.9 mph WSW4.7 kmh WSW 2.0 mph3.2 kmh 30.22 in1023.4 mb - 0.00 in0.0 mm 0.00 in0.0 mm
09:12 AM 55.8°F13.2°C 49.6°F9.8°C 80% 2.9 mph WSW4.7 kmh WSW 0.9 mph1.4 kmh 30.22 in1023.4 mb - 0.00 in0.0 mm 0.00 in0.0 mm
09:02 AM 55.2°F12.9°C 49.5°F9.7°C 81% 2.9 mph SW4.7 kmh SW 2.0 mph3.2 kmh 30.22 in1023.4 mb - 0.00 in0.0 mm 0.00 in0.0 mm
08:52 AM 54.7°F12.6°C 49.6°F9.8°C 83% 2.9 mph S4.7 kmh S 4.0 mph6.4 kmh 30.22 in1023.4 mb - 0.00 in0.0 mm 0.00 in0.0 mm
08:42 AM 54.0°F12.2°C 49.3°F9.6°C 84% 2.0 mph SW3.2 kmh SW 0.9 mph1.4 kmh 30.21 in1023.0 mb - 0.00 in0.0 mm 0.00 in0.0 mm
08:32 AM 53.4°F11.9°C 48.7°F9.3°C 84% 2.9 mph SW4.7 kmh SW 2.0 mph3.2 kmh 30.22 in1023.4 mb - 0.00 in0.0 mm 0.00 in0.0 mm
08:22 AM 52.7°F11.5°C 48.6°F9.2°C 86% 2.0 mph SW3.2 kmh SW 0.9 mph1.4 kmh 30.22 in1023.4 mb - 0.00 in0.0 mm 0.00 in0.0 mm
08:12 AM 52.0°F11.1°C 48.6°F9.2°C 88% 2.0 mph WSW3.2 kmh WSW 0.9 mph1.4 kmh 30.22 in1023.4 mb - 0.00 in0.0 mm 0.00 in0.0 mm
08:02 AM 51.1°F10.6°C 48.0°F8.9°C 89% 0.9 mph SW1.4 kmh SW 2.9 mph4.7 kmh 30.22 in1023.4 mb - 0.00 in0.0 mm 0.00 in0.0 mm
07:52 AM 50.2°F10.1°C 47.3°F8.5°C 90% Calm Calm -- 30.22 in1023.4 mb - 0.00 in0.0 mm 0.00 in0.0 mm
07:42 AM 49.3°F9.6°C 46.4°F8.0°C 90% Calm Calm 0.9 mph1.4 kmh 30.22 in1023.4 mb - 0.00 in0.0 mm 0.00 in0.0 mm
07:32 AM 48.7°F9.3°C 46.2°F7.9°C 91% 0.9 mph SW1.4 kmh SW -- 30.21 in1023.0 mb - 0.00 in0.0 mm 0.00 in0.0 mm
07:22 AM 48.2°F9.0°C 45.7°F7.6°C 91% Calm Calm -- 30.21 in1023.0 mb - 0.00 in0.0 mm 0.00 in0.0 mm
07:12 AM 48.0°F8.9°C 45.9°F7.7°C 92% Calm Calm -- 30.21 in1023.0 mb - 0.00 in0.0 mm 0.00 in0.0 mm
07:02 AM 47.7°F8.7°C 45.5°F7.5°C 92% Calm Calm -- 30.20 in1022.7 mb - 0.00 in0.0 mm 0.00 in0.0 mm
06:52 AM 47.5°F8.6°C 45.0°F7.2°C 91% Calm Calm -- 30.20 in1022.7 mb - 0.00 in0.0 mm 0.00 in0.0 mm
06:42 AM 47.7°F8.7°C 45.0°F7.2°C 90% Calm Calm -- 30.20 in1022.7 mb - 0.00 in0.0 mm 0.00 in0.0 mm
06:32 AM 47.8°F8.8°C 45.0°F7.2°C 90% Calm Calm -- 30.20 in1022.7 mb - 0.00 in0.0 mm 0.00 in0.0 mm
06:22 AM 48.2°F9.0°C 45.1°F7.3°C 89% Calm Calm -- 30.20 in1022.7 mb - 0.00 in0.0 mm 0.00 in0.0 mm
06:12 AM 48.7°F9.3°C 45.7°F7.6°C 89% Calm Calm -- 30.19 in1022.4 mb - 0.00 in0.0 mm 0.00 in0.0 mm
06:02 AM 49.1°F9.5°C 46.2°F7.9°C 90% Calm Calm -- 30.19 in1022.4 mb - 0.00 in0.0 mm 0.00 in0.0 mm
05:52 AM 49.3°F9.6°C 46.4°F8.0°C 90% Calm Calm 2.0 mph3.2 kmh 30.18 in1022.0 mb - 0.00 in0.0 mm 0.00 in0.0 mm
05:42 AM 49.3°F9.6°C 46.4°F8.0°C 90% Calm Calm -- 30.19 in1022.4 mb - 0.00 in0.0 mm 0.00 in0.0 mm
05:32 AM 49.3°F9.6°C 46.8°F8.2°C 91% 0.9 mph SW1.4 kmh SW -- 30.19 in1022.4 mb - 0.00 in0.0 mm 0.00 in0.0 mm
05:22 AM 48.7°F9.3°C 46.2°F7.9°C 91% Calm Calm 2.0 mph3.2 kmh 30.19 in1022.4 mb - 0.00 in0.0 mm 0.00 in0.0 mm
05:12 AM 48.6°F9.2°C 46.0°F7.8°C 91% Calm Calm -- 30.17 in1021.7 mb - 0.00 in0.0 mm 0.00 in0.0 mm
05:02 AM 48.6°F9.2°C 46.0°F7.8°C 91% Calm Calm -- 30.17 in1021.7 mb - 0.00 in0.0 mm 0.00 in0.0 mm
04:52 AM 48.6°F9.2°C 45.7°F7.6°C 90% Calm Calm -- 30.18 in1022.0 mb - 0.00 in0.0 mm 0.00 in0.0 mm
04:42 AM 48.6°F9.2°C 45.7°F7.6°C 90% Calm Calm -- 30.18 in1022.0 mb - 0.00 in0.0 mm 0.00 in0.0 mm
04:22 AM 49.3°F9.6°C 46.4°F8.0°C 90% Calm Calm -- 30.19 in1022.4 mb - 0.00 in0.0 mm 0.00 in0.0 mm
04:12 AM 49.3°F9.6°C 46.4°F8.0°C 90% Calm Calm -- 30.18 in1022.0 mb - 0.00 in0.0 mm 0.00 in0.0 mm
04:02 AM 49.5°F9.7°C 46.4°F8.0°C 89% Calm Calm -- 30.18 in1022.0 mb - 0.00 in0.0 mm 0.00 in0.0 mm
03:52 AM 49.6°F9.8°C 46.6°F8.1°C 89% Calm Calm -- 30.18 in1022.0 mb - 0.00 in0.0 mm 0.00 in0.0 mm
03:42 AM 49.8°F9.9°C 46.8°F8.2°C 89% Calm Calm -- 30.17 in1021.7 mb - 0.00 in0.0 mm 0.00 in0.0 mm
03:32 AM 50.0°F10.0°C 46.6°F8.1°C 88% 0.9 mph WSW1.4 kmh WSW -- 30.17 in1021.7 mb - 0.00 in0.0 mm 0.00 in0.0 mm
03:22 AM 50.2°F10.1°C 46.8°F8.2°C 88% 0.9 mph WSW1.4 kmh WSW -- 30.17 in1021.7 mb - 0.00 in0.0 mm 0.00 in0.0 mm
03:12 AM 50.4°F10.2°C 46.6°F8.1°C 87% 0.9 mph SW1.4 kmh SW 2.0 mph3.2 kmh 30.16 in1021.3 mb - 0.00 in0.0 mm 0.00 in0.0 mm
03:02 AM 50.4°F10.2°C 46.6°F8.1°C 87% 2.0 mph SW3.2 kmh SW -- 30.17 in1021.7 mb - 0.00 in0.0 mm 0.00 in0.0 mm
02:52 AM 50.4°F10.2°C 46.4°F8.0°C 86% 0.9 mph SW1.4 kmh SW 2.0 mph3.2 kmh 30.17 in1021.7 mb - 0.00 in0.0 mm 0.00 in0.0 mm
02:42 AM 50.4°F10.2°C 46.6°F8.1°C 87% 2.0 mph SW3.2 kmh SW -- 30.17 in1021.7 mb - 0.00 in0.0 mm 0.00 in0.0 mm
02:32 AM 50.5°F10.3°C 46.8°F8.2°C 87% 2.0 mph SW3.2 kmh SW 4.9 mph7.9 kmh 30.17 in1021.7 mb - 0.00 in0.0 mm 0.00 in0.0 mm
02:22 AM 50.5°F10.3°C 46.8°F8.2°C 87% 2.0 mph SW3.2 kmh SW 0.9 mph1.4 kmh 30.16 in1021.3 mb - 0.00 in0.0 mm 0.00 in0.0 mm
02:12 AM 50.5°F10.3°C 47.1°F8.4°C 88% 2.0 mph SSW3.2 kmh SSW -- 30.16 in1021.3 mb - 0.00 in0.0 mm 0.00 in0.0 mm
02:02 AM 50.4°F10.2°C 47.3°F8.5°C 89% 0.9 mph SSW1.4 kmh SSW -- 30.16 in1021.3 mb - 0.00 in0.0 mm 0.00 in0.0 mm
01:52 AM 50.5°F10.3°C 47.5°F8.6°C 89% 0.9 mph SW1.4 kmh SW -- 30.16 in1021.3 mb - 0.00 in0.0 mm 0.00 in0.0 mm
01:42 AM 50.7°F10.4°C 47.8°F8.8°C 90% 2.0 mph SSW3.2 kmh SSW 0.9 mph1.4 kmh 30.15 in1021.0 mb - 0.00 in0.0 mm 0.00 in0.0 mm
01:32 AM 50.7°F10.4°C 48.2°F9.0°C 91% 0.9 mph SW1.4 kmh SW 2.9 mph4.7 kmh 30.15 in1021.0 mb - 0.00 in0.0 mm 0.00 in0.0 mm
01:22 AM 50.7°F10.4°C 48.2°F9.0°C 91% 0.9 mph SSW1.4 kmh SSW 2.9 mph4.7 kmh 30.15 in1021.0 mb - 0.00 in0.0 mm 0.00 in0.0 mm
01:12 AM 50.9°F10.5°C 48.4°F9.1°C 91% 0.9 mph SSE1.4 kmh SSE 0.9 mph1.4 kmh 30.14 in1020.7 mb - 0.00 in0.0 mm 0.00 in0.0 mm
01:02 AM 51.1°F10.6°C 48.9°F9.4°C 92% Calm Calm -- 30.14 in1020.7 mb - 0.00 in0.0 mm 0.00 in0.0 mm
12:52 AM 51.3°F10.7°C 49.1°F9.5°C 92% 0.9 mph SE1.4 kmh SE -- 30.14 in1020.7 mb - 0.00 in0.0 mm 0.00 in0.0 mm
12:42 AM 51.3°F10.7°C 49.1°F9.5°C 92% 0.9 mph SW1.4 kmh SW 0.9 mph1.4 kmh 30.14 in1020.7 mb - 0.00 in0.0 mm 0.00 in0.0 mm
12:32 AM 51.3°F10.7°C 49.1°F9.5°C 92% Calm Calm -- 30.13 in1020.3 mb - 0.00 in0.0 mm 0.00 in0.0 mm
12:22 AM 51.4°F10.8°C 49.3°F9.6°C 92% Calm Calm -- 30.13 in1020.3 mb - 0.00 in0.0 mm 0.00 in0.0 mm
12:12 AM 51.4°F10.8°C 49.3°F9.6°C 92% Calm Calm -- 30.13 in1020.3 mb - 0.00 in0.0 mm 0.00 in0.0 mm
12:02 AM 51.6°F10.9°C 49.1°F9.5°C 91% Calm Calm -- 30.12 in1020.0 mb - 0.00 in0.0 mm 0.00 in0.0 mm